createdAt,value
2016-03-18T00:00:19.850Z,18.04
2016-03-18T00:01:19.883Z,18.1
2016-03-18T00:02:19.981Z,18.1
2016-03-18T00:03:19.998Z,18.1
2016-03-18T00:04:20.047Z,18.15
2016-03-18T00:05:20.144Z,18.16
2016-03-18T00:06:20.168Z,18.04
2016-03-18T00:07:20.217Z,18.11
2016-03-18T00:08:20.252Z,18.07
2016-03-18T00:09:20.317Z,18.15
2016-03-18T00:10:20.381Z,18.11
2016-03-18T00:11:20.432Z,18.1
2016-03-18T00:12:20.450Z,18.1
2016-03-18T00:13:20.547Z,18.07
2016-03-18T00:14:20.580Z,18.08
2016-03-18T00:15:20.614Z,18.13
2016-03-18T00:16:20.695Z,18.08
2016-03-18T00:17:20.745Z,18.07
2016-03-18T00:18:20.778Z,18.1
2016-03-18T00:19:20.843Z,18.1
2016-03-18T00:20:20.878Z,18.1
2016-03-18T00:21:20.927Z,18.05
2016-03-18T00:22:20.977Z,18.03
2016-03-18T00:23:21.027Z,18.07
2016-03-18T00:24:21.091Z,18.07
2016-03-18T00:25:21.141Z,18.07
2016-03-18T00:26:21.191Z,18.11
2016-03-18T00:27:21.256Z,18.05
2016-03-18T00:28:21.305Z,18.08
2016-03-18T00:29:21.340Z,18.05
2016-03-18T00:30:21.404Z,18.04
2016-03-18T00:31:21.472Z,18.13
2016-03-18T00:32:21.489Z,18.08
2016-03-18T00:33:21.539Z,18.05
2016-03-18T00:34:21.604Z,18.07
2016-03-18T00:35:21.638Z,18.1
2016-03-18T00:36:21.703Z,18.03
2016-03-18T00:37:21.769Z,18.07
2016-03-18T00:38:21.833Z,18.03
2016-03-18T00:39:21.852Z,18.04
2016-03-18T00:40:21.917Z,18.03
2016-03-18T00:41:21.982Z,18.01
2016-03-18T00:42:22.000Z,18.05
2016-03-18T00:43:22.081Z,18.03
2016-03-18T00:44:22.131Z,18.07
2016-03-18T00:45:22.164Z,18.01
2016-03-18T00:46:22.198Z,18.03
2016-03-18T00:47:22.264Z,18.01
2016-03-18T00:48:22.314Z,18.05
2016-03-18T00:49:22.379Z,18.04
2016-03-18T00:50:22.412Z,18.03
2016-03-18T00:51:22.509Z,18.08
2016-03-18T00:52:22.370Z,18.07
2016-03-18T00:53:22.577Z,18.01
2016-03-18T00:54:22.642Z,18.05
2016-03-18T00:55:22.691Z,18.05
2016-03-18T00:56:22.726Z,18.11
2016-03-18T00:57:22.791Z,18.05
2016-03-18T00:58:22.825Z,18.03
2016-03-18T00:59:22.906Z,18.08
2016-03-18T01:00:22.940Z,18.04
2016-03-18T01:01:22.989Z,18.05
2016-03-18T01:02:23.055Z,18.08
2016-03-18T01:03:23.104Z,18.04
2016-03-18T01:04:23.138Z,18.1
2016-03-18T01:05:23.203Z,18.1
2016-03-18T01:06:23.096Z,18.05
2016-03-18T01:07:23.463Z,18.07
2016-03-18T01:08:23.340Z,18.08
2016-03-18T01:09:23.406Z,18.08
2016-03-18T01:10:23.456Z,18.08
2016-03-18T01:11:23.504Z,18.03
2016-03-18T01:12:23.555Z,18.07
2016-03-18T01:13:23.589Z,18
2016-03-18T01:14:23.670Z,18.1
2016-03-18T01:15:23.704Z,18.07
2016-03-18T01:16:23.753Z,18.07
2016-03-18T01:17:23.834Z,18.04
2016-03-18T01:18:23.867Z,18.1
2016-03-18T01:19:23.901Z,18.07
2016-03-18T01:20:23.983Z,18.03
2016-03-18T01:21:24.032Z,18.03
2016-03-18T01:22:24.066Z,18.03
2016-03-18T01:23:24.131Z,18.04
2016-03-18T01:24:24.150Z,18.04
2016-03-18T01:25:24.089Z,18.01
2016-03-18T01:26:24.280Z,18.03
2016-03-18T01:27:24.330Z,18.04
2016-03-18T01:28:24.394Z,18.07
2016-03-18T01:29:24.444Z,18.03
2016-03-18T01:30:24.477Z,18.01
2016-03-18T01:31:24.543Z,18.05
2016-03-18T01:32:24.593Z,17.94
2016-03-18T01:33:24.626Z,17.97
2016-03-18T01:34:24.708Z,18
2016-03-18T01:35:24.741Z,18
2016-03-18T01:36:24.776Z,17.97
2016-03-18T01:37:24.824Z,17.98
2016-03-18T01:38:24.874Z,17.98
2016-03-18T01:39:24.799Z,17.98
2016-03-18T01:40:24.990Z,17.97
2016-03-18T01:41:25.070Z,17.98
2016-03-18T01:42:25.151Z,18.05
2016-03-18T01:43:25.154Z,18
2016-03-18T01:44:25.187Z,17.95
2016-03-18T01:45:25.253Z,18.03
2016-03-18T01:46:25.302Z,17.97
2016-03-18T01:47:25.351Z,17.92
2016-03-18T01:48:25.401Z,18.01
2016-03-18T01:49:25.466Z,18.04
2016-03-18T01:50:25.532Z,17.98
2016-03-18T01:51:25.581Z,17.95
2016-03-18T01:52:25.647Z,17.97
2016-03-18T01:53:25.697Z,17.97
2016-03-18T01:54:25.714Z,18.03
2016-03-18T01:55:25.764Z,17.95
2016-03-18T01:56:25.844Z,17.94
2016-03-18T01:57:25.879Z,18
2016-03-18T01:58:25.913Z,18.01
2016-03-18T01:59:25.963Z,17.98
2016-03-18T02:00:26.043Z,17.94
2016-03-18T02:01:26.077Z,17.95
2016-03-18T02:02:26.142Z,17.95
2016-03-18T02:03:26.177Z,17.97
2016-03-18T02:04:26.226Z,18
2016-03-18T02:05:26.291Z,18
2016-03-18T02:06:26.341Z,18
2016-03-18T02:07:26.375Z,17.98
2016-03-18T02:08:26.440Z,17.97
2016-03-18T02:09:26.505Z,18
2016-03-18T02:10:26.538Z,17.98
2016-03-18T02:11:26.588Z,18
2016-03-18T02:12:26.653Z,17.98
2016-03-18T02:13:26.672Z,17.98
2016-03-18T02:14:26.737Z,18.04
2016-03-18T02:15:26.818Z,17.94
2016-03-18T02:16:26.852Z,17.92
2016-03-18T02:17:26.902Z,17.9
2016-03-18T02:18:26.967Z,17.98
2016-03-18T02:19:26.984Z,17.98
2016-03-18T02:20:27.034Z,17.9
2016-03-18T02:21:27.100Z,17.9
2016-03-18T02:22:27.134Z,17.95
2016-03-18T02:23:27.199Z,17.9
2016-03-18T02:24:27.280Z,17.92
2016-03-18T02:25:27.297Z,17.92
2016-03-18T02:26:27.363Z,17.89
2016-03-18T02:27:27.428Z,17.9
2016-03-18T02:28:27.447Z,18.01
2016-03-18T02:29:27.511Z,17.9
2016-03-18T02:30:27.592Z,17.95
2016-03-18T02:31:27.611Z,17.86
2016-03-18T02:32:27.676Z,17.95
2016-03-18T02:33:27.741Z,17.94
2016-03-18T02:34:27.791Z,17.95
2016-03-18T02:35:27.855Z,17.86
2016-03-18T02:36:27.891Z,17.89
2016-03-18T02:37:27.924Z,17.87
2016-03-18T02:38:27.989Z,17.85
2016-03-18T02:39:28.085Z,17.89
2016-03-18T02:40:28.103Z,17.87
2016-03-18T02:41:28.145Z,17.85
2016-03-18T02:42:28.257Z,17.86
2016-03-18T02:43:28.276Z,17.85
2016-03-18T02:44:28.263Z,17.83
2016-03-18T02:45:28.296Z,17.85
2016-03-18T02:46:28.346Z,17.8
2016-03-18T02:47:28.426Z,17.89
2016-03-18T02:48:28.446Z,17.8
2016-03-18T02:49:28.511Z,17.85
2016-03-18T02:50:28.576Z,17.89
2016-03-18T02:51:28.626Z,17.85
2016-03-18T02:52:28.723Z,17.87
2016-03-18T02:53:28.725Z,17.9
2016-03-18T02:54:28.775Z,17.89
2016-03-18T02:55:28.840Z,17.85
2016-03-18T02:56:28.873Z,17.82
2016-03-18T02:57:28.923Z,17.86
2016-03-18T02:58:28.988Z,17.87
2016-03-18T02:59:29.006Z,17.85
2016-03-18T03:00:29.071Z,17.87
2016-03-18T03:01:29.136Z,17.87
2016-03-18T03:02:29.171Z,17.85
2016-03-18T03:03:29.219Z,17.87
2016-03-18T03:04:29.301Z,17.86
2016-03-18T03:05:29.336Z,17.86
2016-03-18T03:06:29.385Z,17.87
2016-03-18T03:07:29.466Z,17.89
2016-03-18T03:08:29.499Z,17.85
2016-03-18T03:09:29.518Z,17.82
2016-03-18T03:10:29.582Z,17.89
2016-03-18T03:11:29.649Z,17.85
2016-03-18T03:12:29.666Z,17.78
2016-03-18T03:13:29.732Z,17.78
2016-03-18T03:14:29.796Z,17.74
2016-03-18T03:15:29.846Z,17.86
2016-03-18T03:16:29.879Z,17.78
2016-03-18T03:17:29.977Z,17.78
2016-03-18T03:18:29.995Z,17.86
2016-03-18T03:19:30.107Z,17.83
2016-03-18T03:20:30.095Z,17.72
2016-03-18T03:21:30.160Z,17.83
2016-03-18T03:22:30.303Z,17.82
2016-03-18T03:23:30.243Z,17.79
2016-03-18T03:24:30.292Z,17.85
2016-03-18T03:25:30.358Z,17.94
2016-03-18T03:26:30.392Z,17.78
2016-03-18T03:27:30.441Z,17.8
2016-03-18T03:28:30.522Z,17.82
2016-03-18T03:29:30.587Z,17.8
2016-03-18T03:30:30.621Z,17.8
2016-03-18T03:31:30.686Z,17.79
2016-03-18T03:32:30.705Z,17.8
2016-03-18T03:33:30.800Z,17.76
2016-03-18T03:34:30.804Z,17.83
2016-03-18T03:35:30.853Z,17.79
2016-03-18T03:36:30.934Z,17.83
2016-03-18T03:37:30.968Z,17.76
2016-03-18T03:38:31.018Z,17.82
2016-03-18T03:39:31.082Z,17.83
2016-03-18T03:40:31.148Z,17.76
2016-03-18T03:41:31.166Z,17.79
2016-03-18T03:42:31.232Z,17.79
2016-03-18T03:43:31.327Z,17.82
2016-03-18T03:44:31.362Z,17.79
2016-03-18T03:45:31.396Z,17.79
2016-03-18T03:46:31.461Z,17.82
2016-03-18T03:47:31.495Z,17.8
2016-03-18T03:48:31.545Z,17.79
2016-03-18T03:49:31.563Z,17.83
2016-03-18T03:50:31.629Z,17.74
2016-03-18T03:51:31.693Z,17.8
2016-03-18T03:52:31.759Z,17.82
2016-03-18T03:53:31.792Z,17.76
2016-03-18T03:54:31.857Z,17.85
2016-03-18T03:55:31.876Z,17.79
2016-03-18T03:56:31.925Z,17.8
2016-03-18T03:57:32.037Z,17.8
2016-03-18T03:58:32.039Z,17.8
2016-03-18T03:59:32.074Z,17.74
2016-03-18T04:00:32.170Z,17.9
2016-03-18T04:01:32.205Z,17.8
2016-03-18T04:02:32.239Z,17.76
2016-03-18T04:03:32.350Z,17.82
2016-03-18T04:04:32.369Z,17.79
2016-03-18T04:05:32.387Z,17.74
2016-03-18T04:06:32.514Z,17.9
2016-03-18T04:07:33.040Z,17.78
2016-03-18T04:08:32.559Z,17.8
2016-03-18T04:09:32.623Z,17.82
2016-03-18T04:10:32.657Z,17.85
2016-03-18T04:11:32.738Z,17.82
2016-03-18T04:12:32.787Z,17.79
2016-03-18T04:13:32.790Z,17.79
2016-03-18T04:14:32.903Z,17.74
2016-03-18T04:15:32.937Z,17.8
2016-03-18T04:16:32.955Z,17.78
2016-03-18T04:17:33.020Z,17.8
2016-03-18T04:18:33.085Z,17.76
2016-03-18T04:19:33.119Z,17.8
2016-03-18T04:20:33.169Z,17.79
2016-03-18T04:21:33.249Z,17.76
2016-03-18T04:22:33.283Z,17.71
2016-03-18T04:23:33.348Z,17.76
2016-03-18T04:24:33.366Z,17.83
2016-03-18T04:25:33.416Z,17.76
2016-03-18T04:26:33.497Z,17.82
2016-03-18T04:27:33.530Z,17.78
2016-03-18T04:28:33.566Z,17.76
2016-03-18T04:29:33.646Z,17.8
2016-03-18T04:30:33.711Z,17.8
2016-03-18T04:31:33.745Z,17.85
2016-03-18T04:32:33.794Z,17.79
2016-03-18T04:33:33.859Z,17.8
2016-03-18T04:34:33.893Z,17.79
2016-03-18T04:35:33.959Z,17.8
2016-03-18T04:36:33.993Z,17.78
2016-03-18T04:37:34.073Z,17.78
2016-03-18T04:38:34.092Z,17.85
2016-03-18T04:39:34.125Z,17.78
2016-03-18T04:40:34.223Z,17.8
2016-03-18T04:41:34.256Z,17.79
2016-03-18T04:42:34.290Z,17.78
2016-03-18T04:43:34.386Z,17.78
2016-03-18T04:44:34.437Z,17.83
2016-03-18T04:45:34.454Z,17.8
2016-03-18T04:46:34.520Z,17.85
2016-03-18T04:47:34.569Z,17.76
2016-03-18T04:48:34.603Z,17.74
2016-03-18T04:49:34.684Z,17.8
2016-03-18T04:50:34.718Z,17.82
2016-03-18T04:51:34.767Z,17.78
2016-03-18T04:52:34.864Z,17.8
2016-03-18T04:53:34.882Z,17.78
2016-03-18T04:54:34.916Z,17.76
2016-03-18T04:55:34.997Z,17.71
2016-03-18T04:56:35.016Z,17.72
2016-03-18T04:57:35.065Z,17.82
2016-03-18T04:58:35.005Z,17.76
2016-03-18T04:59:35.196Z,17.76
2016-03-18T05:00:35.214Z,17.78
2016-03-18T05:01:35.279Z,17.68
2016-03-18T05:02:35.343Z,17.74
2016-03-18T05:03:35.409Z,17.83
2016-03-18T05:04:35.427Z,17.83
2016-03-18T05:05:35.508Z,17.59
2016-03-18T05:06:35.557Z,17.45
2016-03-18T05:07:35.576Z,17.24
2016-03-18T05:08:35.640Z,16.99
2016-03-18T05:09:35.690Z,16.79
2016-03-18T05:10:35.725Z,16.71
2016-03-18T05:11:35.774Z,16.58
2016-03-18T05:12:35.855Z,16.43
2016-03-18T05:13:35.890Z,16.41
2016-03-18T05:14:35.954Z,16.26
2016-03-18T05:15:35.973Z,16.24
2016-03-18T05:16:36.054Z,16.2
2016-03-18T05:17:36.119Z,16.16
2016-03-18T05:18:36.153Z,16.17
2016-03-18T05:19:36.171Z,16.31
2016-03-18T05:20:36.283Z,16.41
2016-03-18T05:21:36.301Z,16.42
2016-03-18T05:22:36.335Z,16.58
2016-03-18T05:23:36.416Z,16.64
2016-03-18T05:24:36.481Z,16.79
2016-03-18T05:25:36.499Z,16.93
2016-03-18T05:26:36.580Z,16.97
2016-03-18T05:27:36.598Z,17.06
2016-03-18T05:28:36.663Z,17.16
2016-03-18T05:29:36.729Z,17.15
2016-03-18T05:30:36.747Z,17.27
2016-03-18T05:31:36.812Z,17.26
2016-03-18T05:32:36.893Z,17.31
2016-03-18T05:33:36.896Z,17.38
2016-03-18T05:34:36.977Z,17.36
2016-03-18T05:35:37.043Z,17.44
2016-03-18T05:36:37.046Z,17.42
2016-03-18T05:37:37.094Z,17.15
2016-03-18T05:38:37.176Z,16.83
2016-03-18T05:39:37.193Z,16.46
2016-03-18T05:40:37.258Z,16.13
2016-03-18T05:41:37.323Z,15.94
2016-03-18T05:42:37.357Z,15.72
2016-03-18T05:43:37.407Z,15.52
2016-03-18T05:44:37.488Z,15.29
2016-03-18T05:45:37.537Z,15.11
2016-03-18T05:46:37.572Z,15
2016-03-18T05:47:37.636Z,14.82
2016-03-18T05:48:37.703Z,14.81
2016-03-18T05:49:37.720Z,14.89
2016-03-18T05:50:37.786Z,15.09
2016-03-18T05:51:37.819Z,15.28
2016-03-18T05:52:37.869Z,15.47
2016-03-18T05:53:37.934Z,15.57
2016-03-18T05:54:37.969Z,15.79
2016-03-18T05:55:38.033Z,15.94
2016-03-18T05:56:38.099Z,16.05
2016-03-18T05:57:38.117Z,16.31
2016-03-18T05:58:38.167Z,16.36
2016-03-18T05:59:38.247Z,16.42
2016-03-18T06:00:38.280Z,16.58
2016-03-18T06:01:38.330Z,16.57
2016-03-18T06:02:38.396Z,16.74
2016-03-18T06:03:38.430Z,16.75
2016-03-18T06:04:38.463Z,16.87
2016-03-18T06:05:38.544Z,17.01
2016-03-18T06:06:38.593Z,16.97
2016-03-18T06:07:38.643Z,17.01
2016-03-18T06:08:38.662Z,16.84
2016-03-18T06:09:38.712Z,16.83
2016-03-18T06:10:38.823Z,16.78
2016-03-18T06:11:38.810Z,16.74
2016-03-18T06:12:38.860Z,16.72
2016-03-18T06:13:38.957Z,16.66
2016-03-18T06:14:38.975Z,16.6
2016-03-18T06:15:39.025Z,16.61
2016-03-18T06:16:38.934Z,16.61
2016-03-18T06:17:39.156Z,16.58
2016-03-18T06:18:39.204Z,16.56
2016-03-18T06:19:39.222Z,16.58
2016-03-18T06:20:39.272Z,16.51
2016-03-18T06:21:39.337Z,16.58
2016-03-18T06:22:39.372Z,16.64
2016-03-18T06:23:39.421Z,16.6
2016-03-18T06:24:39.517Z,16.57
2016-03-18T06:25:39.536Z,16.56
2016-03-18T06:26:39.570Z,16.58
2016-03-18T06:27:39.682Z,16.58
2016-03-18T06:28:39.716Z,16.6
2016-03-18T06:29:39.749Z,16.61
2016-03-18T06:30:39.800Z,16.6
2016-03-18T06:31:39.849Z,16.6
2016-03-18T06:32:39.914Z,16.58
2016-03-18T06:33:39.963Z,16.68
2016-03-18T06:34:39.982Z,16.68
2016-03-18T06:35:40.063Z,16.66
2016-03-18T06:36:40.113Z,16.64
2016-03-18T06:37:40.130Z,16.65
2016-03-18T06:38:40.196Z,16.68
2016-03-18T06:39:40.277Z,16.75
2016-03-18T06:40:40.295Z,16.68
2016-03-18T06:41:40.329Z,16.69
2016-03-18T06:42:40.409Z,16.64
2016-03-18T06:43:40.444Z,16.74
2016-03-18T06:44:40.509Z,16.69
2016-03-18T06:45:40.527Z,16.65
2016-03-18T06:46:40.608Z,16.68
2016-03-18T06:47:40.657Z,16.72
2016-03-18T06:48:40.692Z,16.79
2016-03-18T06:49:40.757Z,16.72
2016-03-18T06:50:40.822Z,16.79
2016-03-18T06:51:40.840Z,16.78
2016-03-18T06:52:40.906Z,16.79
2016-03-18T06:53:40.971Z,16.84
2016-03-18T06:54:41.005Z,16.84
2016-03-18T06:55:41.039Z,16.79
2016-03-18T06:56:41.108Z,16.78
2016-03-18T06:57:41.130Z,16.87
2016-03-18T06:58:41.245Z,17.02
2016-03-18T06:59:41.173Z,17.02
2016-03-18T07:00:41.242Z,17.02
2016-03-18T07:01:41.286Z,17.12
2016-03-18T07:02:41.316Z,17.22
2016-03-18T07:03:41.361Z,17.2
2016-03-18T07:04:41.437Z,17.15
2016-03-18T07:05:41.467Z,17.23
2016-03-18T07:06:41.499Z,17.29
2016-03-18T07:07:41.579Z,17.26
2016-03-18T07:08:41.627Z,17.27
2016-03-18T07:09:41.660Z,17.31
2016-03-18T07:10:41.723Z,17.38
2016-03-18T07:11:41.756Z,17.33
2016-03-18T07:12:41.838Z,17.31
2016-03-18T07:13:41.886Z,17.44
2016-03-18T07:14:41.920Z,17.44
2016-03-18T07:15:41.969Z,17.33
2016-03-18T07:16:42.033Z,17.31
2016-03-18T07:17:42.052Z,17.36
2016-03-18T07:18:42.101Z,17.41
2016-03-18T07:19:42.196Z,17.45
2016-03-18T07:20:42.214Z,17.34
2016-03-18T07:21:42.249Z,17.41
2016-03-18T07:22:42.361Z,17.36
2016-03-18T07:23:42.364Z,17.41
2016-03-18T07:24:42.459Z,17.39
2016-03-18T07:25:42.494Z,17.36
2016-03-18T07:26:42.512Z,17.42
2016-03-18T07:27:42.562Z,17.45
2016-03-18T07:28:42.643Z,17.45
2016-03-18T07:29:42.676Z,17.46
2016-03-18T07:30:42.725Z,17.44
2016-03-18T07:31:42.807Z,17.41
2016-03-18T07:32:42.841Z,17.44
2016-03-18T07:33:42.875Z,17.48
2016-03-18T07:34:42.939Z,17.44
2016-03-18T07:35:42.974Z,17.42
2016-03-18T07:36:43.070Z,17.48
2016-03-18T07:37:43.105Z,17.45
2016-03-18T07:38:43.122Z,17.44
2016-03-18T07:39:43.188Z,17.49
2016-03-18T07:40:43.252Z,17.36
2016-03-18T07:41:43.271Z,17.39
2016-03-18T07:42:43.336Z,17.45
2016-03-18T07:43:43.385Z,17.42
2016-03-18T07:44:43.435Z,17.42
2016-03-18T07:45:43.485Z,17.48
2016-03-18T07:46:43.565Z,17.39
2016-03-18T07:47:43.600Z,17.46
2016-03-18T07:48:43.649Z,17.46
2016-03-18T07:49:43.684Z,17.46
2016-03-18T07:50:43.748Z,17.45
2016-03-18T07:51:43.798Z,17.34
2016-03-18T07:52:43.832Z,17.41
2016-03-18T07:53:43.881Z,17.41
2016-03-18T07:54:43.962Z,17.34
2016-03-18T07:55:43.981Z,17.34
2016-03-18T07:56:44.046Z,17.3
2016-03-18T07:57:44.112Z,17.34
2016-03-18T07:58:44.161Z,17.31
2016-03-18T07:59:44.210Z,17.33
2016-03-18T08:00:44.276Z,17.31
2016-03-18T08:01:44.325Z,17.29
2016-03-18T08:02:44.375Z,17.27
2016-03-18T08:03:44.409Z,17.33
2016-03-18T08:04:44.458Z,17.34
2016-03-18T08:05:44.570Z,17.29
2016-03-18T08:06:44.541Z,17.42
2016-03-18T08:07:44.592Z,17.39
2016-03-18T08:08:44.656Z,17.31
2016-03-18T08:09:44.705Z,17.38
2016-03-18T08:10:44.740Z,17.41
2016-03-18T08:11:44.821Z,17.31
2016-03-18T08:12:44.870Z,17.39
2016-03-18T08:13:44.935Z,17.33
2016-03-18T08:14:44.954Z,17.31
2016-03-18T08:15:45.003Z,17.34
2016-03-18T08:16:45.069Z,17.39
2016-03-18T08:17:45.118Z,17.42
2016-03-18T08:18:45.137Z,17.36
2016-03-18T08:19:45.232Z,17.38
2016-03-18T08:20:45.267Z,17.34
2016-03-18T08:21:45.301Z,17.38
2016-03-18T08:22:45.397Z,17.31
2016-03-18T08:23:45.431Z,17.33
2016-03-18T08:24:45.465Z,17.27
2016-03-18T08:25:45.514Z,17.24
2016-03-18T08:26:45.580Z,17.22
2016-03-18T08:27:45.629Z,17.22
2016-03-18T08:28:45.678Z,17.26
2016-03-18T08:29:45.713Z,17.23
2016-03-18T08:30:45.762Z,17.2
2016-03-18T08:31:45.828Z,17.33
2016-03-18T08:32:45.861Z,17.3
2016-03-18T08:33:45.895Z,17.38
2016-03-18T08:34:46.007Z,17.42
2016-03-18T08:35:46.011Z,17.36
2016-03-18T08:36:46.060Z,17.36
2016-03-18T08:37:46.156Z,17.38
2016-03-18T08:38:46.174Z,17.39
2016-03-18T08:39:46.239Z,17.33
2016-03-18T08:40:46.274Z,17.39
2016-03-18T08:41:46.307Z,17.33
2016-03-18T08:42:46.435Z,17.44
2016-03-18T08:43:46.407Z,17.3
2016-03-18T08:44:46.472Z,17.38
2016-03-18T08:45:46.553Z,17.36
2016-03-18T08:46:46.602Z,17.48
2016-03-18T08:47:46.620Z,17.46
2016-03-18T08:48:46.686Z,17.42
2016-03-18T08:49:46.735Z,17.39
2016-03-18T08:50:46.768Z,17.42
2016-03-18T08:51:46.851Z,17.38
2016-03-18T08:52:46.884Z,17.36
2016-03-18T08:53:46.949Z,17.45
2016-03-18T08:54:46.968Z,17.36
2016-03-18T08:55:47.032Z,17.45
2016-03-18T08:56:47.097Z,17.34
2016-03-18T08:57:47.132Z,17.45
2016-03-18T08:58:47.181Z,17.42
2016-03-18T08:59:47.246Z,17.44
2016-03-18T09:00:47.295Z,17.42
2016-03-18T09:01:47.345Z,17.41
2016-03-18T09:02:47.411Z,17.42
2016-03-18T09:03:47.461Z,17.45
2016-03-18T09:04:47.494Z,17.49
2016-03-18T09:05:47.528Z,17.41
2016-03-18T09:06:47.609Z,17.38
2016-03-18T09:07:47.643Z,17.48
2016-03-18T09:08:47.708Z,17.42
2016-03-18T09:09:47.773Z,17.39
2016-03-18T09:10:47.917Z,17.39
2016-03-18T09:11:47.091Z,17.49
2016-03-18T09:12:47.922Z,17.46
2016-03-18T09:13:47.956Z,17.42
2016-03-18T09:14:47.990Z,17.39
2016-03-18T09:15:48.055Z,17.48
2016-03-18T09:16:48.136Z,17.36
2016-03-18T09:17:48.138Z,17.46
2016-03-18T09:18:48.188Z,17.45
2016-03-18T09:19:48.237Z,17.36
2016-03-18T09:20:48.303Z,17.44
2016-03-18T09:21:48.352Z,17.38
2016-03-18T09:22:48.387Z,17.36
2016-03-18T09:23:48.482Z,17.42
2016-03-18T09:24:48.532Z,17.36
2016-03-18T09:25:48.551Z,17.44
2016-03-18T09:26:48.615Z,17.39
2016-03-18T09:27:48.697Z,17.42
2016-03-18T09:28:48.700Z,17.44
2016-03-18T09:29:48.749Z,17.48
2016-03-18T09:30:48.814Z,17.48
2016-03-18T09:31:48.879Z,17.36
2016-03-18T09:32:48.929Z,17.42
2016-03-18T09:33:54.353Z,17.44
2016-03-18T09:34:49.028Z,17.44
2016-03-18T09:35:49.093Z,17.41
2016-03-18T09:36:49.112Z,17.44
2016-03-18T09:37:49.161Z,17.41
2016-03-18T09:38:49.117Z,17.41
2016-03-18T09:39:49.244Z,17.42
2016-03-18T09:40:49.325Z,17.39
2016-03-18T09:41:49.375Z,17.34
2016-03-18T09:42:49.408Z,17.41
2016-03-18T09:43:49.490Z,17.45
2016-03-18T09:44:49.508Z,17.41
2016-03-18T09:45:49.557Z,17.52
2016-03-18T09:46:49.639Z,17.45
2016-03-18T09:47:49.657Z,17.42
2016-03-18T09:48:49.721Z,17.42
2016-03-18T09:49:49.803Z,17.39
2016-03-18T09:50:49.837Z,17.36
2016-03-18T09:51:49.870Z,17.42
2016-03-18T09:52:49.936Z,17.48
2016-03-18T09:53:49.860Z,17.38
2016-03-18T09:54:50.020Z,17.46
2016-03-18T09:55:50.116Z,17.39
2016-03-18T09:56:50.118Z,17.44
2016-03-18T09:57:50.199Z,17.45
2016-03-18T09:58:50.217Z,17.48
2016-03-18T09:59:50.267Z,17.44
2016-03-18T10:00:50.331Z,17.39
2016-03-18T10:01:50.381Z,17.41
2016-03-18T10:02:50.431Z,17.42
2016-03-18T10:03:50.512Z,17.36
2016-03-18T10:04:50.561Z,17.41
2016-03-18T10:05:50.581Z,17.36
2016-03-18T10:06:50.645Z,17.42
2016-03-18T10:07:50.710Z,17.41
2016-03-18T10:08:50.729Z,17.33
2016-03-18T10:09:50.810Z,17.36
2016-03-18T10:10:50.828Z,17.41
2016-03-18T10:11:50.909Z,17.42
2016-03-18T10:12:50.958Z,17.46
2016-03-18T10:13:50.992Z,17.39
2016-03-18T10:14:51.041Z,17.46
2016-03-18T10:15:51.107Z,17.36
2016-03-18T10:16:51.141Z,17.42
2016-03-18T10:17:51.174Z,17.33
2016-03-18T10:18:51.272Z,17.45
2016-03-18T10:19:51.149Z,17.36
2016-03-18T10:20:51.324Z,17.45
2016-03-18T10:21:51.420Z,17.38
2016-03-18T10:22:51.438Z,17.45
2016-03-18T10:23:51.503Z,17.49
2016-03-18T10:24:51.537Z,17.45
2016-03-18T10:25:51.587Z,17.38
2016-03-18T10:26:51.667Z,17.41
2016-03-18T10:27:51.687Z,17.31
2016-03-18T10:28:51.736Z,17.44
2016-03-18T10:29:51.832Z,17.52
2016-03-18T10:30:51.850Z,17.42
2016-03-18T10:31:51.900Z,17.45
2016-03-18T10:32:51.964Z,17.44
2016-03-18T10:33:52.031Z,17.41
2016-03-18T10:34:52.081Z,17.46
2016-03-18T10:35:52.083Z,17.44
2016-03-18T10:36:52.164Z,17.33
2016-03-18T10:37:52.213Z,17.42
2016-03-18T10:38:52.247Z,17.33
2016-03-18T10:39:52.297Z,17.36
2016-03-18T10:40:52.377Z,17.46
2016-03-18T10:41:52.411Z,17.38
2016-03-18T10:42:52.461Z,17.42
2016-03-18T10:43:52.542Z,17.45
2016-03-18T10:44:52.575Z,17.46
2016-03-18T10:45:52.610Z,17.41
2016-03-18T10:46:52.690Z,17.48
2016-03-18T10:47:52.740Z,17.38
2016-03-18T10:48:52.758Z,17.41
2016-03-18T10:49:52.807Z,17.45
2016-03-18T10:50:52.889Z,17.46
2016-03-18T10:51:52.907Z,17.39
2016-03-18T10:52:52.971Z,17.38
2016-03-18T10:53:53.038Z,17.48
2016-03-18T10:54:53.087Z,17.33
2016-03-18T10:55:53.121Z,17.41
2016-03-18T10:56:53.187Z,17.42
2016-03-18T10:57:53.251Z,17.46
2016-03-18T10:58:53.270Z,17.45
2016-03-18T10:59:53.335Z,17.44
2016-03-18T11:00:53.368Z,17.41
2016-03-18T11:01:53.434Z,17.39
2016-03-18T11:02:53.468Z,17.46
2016-03-18T11:03:53.517Z,17.44
2016-03-18T11:04:53.598Z,17.46
2016-03-18T11:05:53.632Z,17.39
2016-03-18T11:06:53.681Z,17.42
2016-03-18T11:07:53.747Z,17.42
2016-03-18T11:08:53.797Z,17.45
2016-03-18T11:09:53.830Z,17.45
2016-03-18T11:10:53.895Z,17.42
2016-03-18T11:11:53.961Z,17.39
2016-03-18T11:12:53.979Z,17.36
2016-03-18T11:13:54.028Z,17.39
2016-03-18T11:14:54.063Z,17.42
2016-03-18T11:15:54.159Z,17.46
2016-03-18T11:16:54.208Z,17.42
2016-03-18T11:17:54.227Z,17.46
2016-03-18T11:18:54.308Z,17.42
2016-03-18T11:19:54.357Z,17.42
2016-03-18T11:20:54.391Z,17.34
2016-03-18T11:21:54.457Z,17.36
2016-03-18T11:22:54.522Z,17.39
2016-03-18T11:23:54.540Z,17.44
2016-03-18T11:24:54.590Z,17.42
2016-03-18T11:25:54.685Z,17.41
2016-03-18T11:26:54.688Z,17.45
2016-03-18T11:27:54.770Z,17.36
2016-03-18T11:28:54.788Z,17.34
2016-03-18T11:29:54.837Z,17.42
2016-03-18T11:30:54.917Z,17.42
2016-03-18T11:31:54.952Z,17.34
2016-03-18T11:32:55.017Z,17.39
2016-03-18T11:33:55.082Z,17.34
2016-03-18T11:34:55.100Z,17.34
2016-03-18T11:35:55.150Z,17.44
2016-03-18T11:36:55.215Z,17.42
2016-03-18T11:37:55.280Z,17.48
2016-03-18T11:38:55.283Z,17.45
2016-03-18T11:39:55.380Z,17.42
2016-03-18T11:40:55.430Z,17.39
2016-03-18T11:41:55.463Z,17.39
2016-03-18T11:42:55.513Z,17.42
2016-03-18T11:43:55.578Z,17.34
2016-03-18T11:44:55.597Z,17.42
2016-03-18T11:45:55.661Z,17.44
2016-03-18T11:46:55.742Z,17.41
2016-03-18T11:47:55.761Z,17.45
2016-03-18T11:48:55.810Z,17.46
2016-03-18T11:49:55.891Z,17.45
2016-03-18T11:50:55.909Z,17.39
2016-03-18T11:51:55.975Z,17.51
2016-03-18T11:52:55.993Z,17.51
2016-03-18T11:53:56.057Z,17.33
2016-03-18T11:54:56.138Z,17.31
2016-03-18T11:55:56.157Z,17.46
2016-03-18T11:56:56.207Z,17.41
2016-03-18T11:57:56.293Z,17.45
2016-03-18T11:58:56.326Z,17.45
2016-03-18T11:59:56.360Z,17.39
2016-03-18T12:00:56.441Z,17.45
2016-03-18T12:01:56.490Z,17.39
2016-03-18T12:02:56.525Z,17.42
2016-03-18T12:03:56.589Z,17.41
2016-03-18T12:04:56.623Z,17.34
2016-03-18T12:05:56.689Z,17.39
2016-03-18T12:06:56.754Z,17.44
2016-03-18T12:07:56.773Z,17.38
2016-03-18T12:08:56.869Z,17.45
2016-03-18T12:09:56.903Z,17.39
2016-03-18T12:10:56.921Z,17.39
2016-03-18T12:11:56.986Z,17.46
2016-03-18T12:12:57.052Z,17.41
2016-03-18T12:13:57.069Z,17.39
2016-03-18T12:14:57.119Z,17.45
2016-03-18T12:15:57.199Z,17.41
2016-03-18T12:16:57.235Z,17.39
2016-03-18T12:17:57.283Z,17.44
2016-03-18T12:18:57.318Z,17.42
2016-03-18T12:19:57.399Z,17.38
2016-03-18T12:20:57.479Z,17.41
2016-03-18T12:21:57.482Z,17.41
2016-03-18T12:22:57.563Z,17.41
2016-03-18T12:23:57.613Z,17.44
2016-03-18T12:24:57.631Z,17.42
2016-03-18T12:25:57.712Z,17.41
2016-03-18T12:26:57.761Z,17.33
2016-03-18T12:27:57.764Z,17.39
2016-03-18T12:28:57.845Z,17.45
2016-03-18T12:29:57.909Z,17.45
2016-03-18T12:30:57.959Z,17.41
2016-03-18T12:31:58.009Z,17.42
2016-03-18T12:32:58.074Z,17.39
2016-03-18T12:33:58.108Z,17.45
2016-03-18T12:34:58.142Z,17.44
2016-03-18T12:35:58.207Z,17.42
2016-03-18T12:36:58.289Z,17.42
2016-03-18T12:37:58.275Z,17.42
2016-03-18T12:38:58.356Z,17.39
2016-03-18T12:39:58.405Z,17.39
2016-03-18T12:40:58.439Z,17.51
2016-03-18T12:41:58.489Z,17.41
2016-03-18T12:42:58.555Z,17.41
2016-03-18T12:43:58.620Z,17.45
2016-03-18T12:44:58.669Z,17.46
2016-03-18T12:45:58.688Z,17.46
2016-03-18T12:46:58.783Z,17.36
2016-03-18T12:47:58.833Z,17.36
2016-03-18T12:48:58.867Z,17.41
2016-03-18T12:49:58.901Z,17.41
2016-03-18T12:50:58.997Z,17.38
2016-03-18T12:51:58.985Z,17.45
2016-03-18T12:52:59.066Z,17.44
2016-03-18T12:53:59.115Z,17.42
2016-03-18T12:54:59.149Z,17.45
2016-03-18T12:55:59.245Z,17.41